Time;durP1;ratioP1;P1;durP2;ratioP2;P2;SDS_P1;SDS_P2;PMS_P1;PMS_P2;Temp;Humidity;BMP_temperature;BMP_pressure;BME280_temperature;BME280_humidity;BME280_pressure;Samples;Min_cycle;Max_cycle;Signal;HPM_P1;HPM_P2
2022/08/12 00:43:58;;;;;;;;;;;;;;;28.35;nan;100743.06;5074962;28;1287;-43
2022/08/12 00:46:35;;;;;;;;;;;;;;;28.35;nan;100745.75;5074876;28;737;-44
2022/08/12 00:49:03;;;;;;;;;;;;;;;28.32;nan;100746.03;5075564;28;1296;-42
2022/08/12 00:52:05;;;;;;;;;;;;;;;28.18;nan;100741.16;5073566;28;1914;-42
2022/08/12 00:54:17;;;;;;;;;;;;;;;28.25;nan;100746.78;5075211;28;1239;-42
2022/08/12 00:56:45;;;;;;;;;;;;;;;28.27;nan;100740.25;5073856;28;737;-44
2022/08/12 00:59:12;;;;;;;;;;;;;;;28.17;nan;100737.66;5073508;28;1204;-42
2022/08/12 01:01:42;;;;;;;;;;;;;;;28.18;nan;100738.47;5075287;28;889;-44
2022/08/12 01:12:43;;;;;;;;;;;;;;;28.26;nan;100733.25;5074696;28;1284;-43
2022/08/12 01:15:13;;;;;;;;;;;;;;;28.10;nan;100720.50;5074820;28;1175;-43
2022/08/12 01:17:42;;;;;;;;;;;;;;;28.02;nan;100719.53;5074818;28;1166;-44
2022/08/12 01:20:12;;;;;;;;;;;;;;;28.17;nan;100715.38;5074964;28;1180;-44
2022/08/12 01:22:57;;;;;;;;;;;;;;;28.06;nan;100719.09;5074357;28;1333;-44
2022/08/12 01:25:28;;;;;;;;;;;;;;;27.89;nan;100721.69;5073888;28;1508;-40
2022/08/12 01:27:56;;;;;;;;;;;;;;;28.00;nan;100721.47;5073819;28;1244;-44
2022/08/12 01:30:25;;;;;;;;;;;;;;;28.27;nan;100721.50;5074557;28;1914;-43
2022/08/12 01:32:52;;;;;;;;;;;;;;;28.11;nan;100719.50;5074260;28;1212;-44
2022/08/12 01:35:20;;;;;;;;;;;;;;;27.95;nan;100716.59;5074455;28;1331;-39
2022/08/12 01:37:46;;;;;;;;;;;;;;;27.96;nan;100712.09;5073951;28;1319;-43
2022/08/12 01:40:15;;;;;;;;;;;;;;;28.05;nan;100706.72;5074014;28;1164;-44
2022/08/12 01:43:08;;;;;;;;;;;;;;;27.93;nan;100712.38;5073974;28;1371;-44
2022/08/12 01:45:40;;;;;;;;;;;;;;;27.84;nan;100708.75;5074123;28;814;-44
2022/08/12 01:48:35;;;;;;;;;;;;;;;27.88;nan;100717.31;5074048;28;1264;-43
2022/08/12 01:51:03;;;;;;;;;;;;;;;27.66;nan;100718.53;5064722;28;1902;-44
2022/08/12 01:53:43;;;;;;;;;;;;;;;27.77;nan;100718.34;5073551;28;1392;-45
2022/08/12 01:56:16;;;;;;;;;;;;;;;27.75;nan;100715.00;5074355;28;1592;-42
2022/08/12 02:01:33;;;;;;;;;;;;;;;27.90;nan;100716.19;5073718;28;882;-43
2022/08/12 02:13:13;;;;;;;;;;;;;;;27.55;nan;100713.34;5071144;28;2212;-44
2022/08/12 02:16:06;;;;;;;;;;;;;;;27.75;nan;100704.28;5071384;28;660;-44
2022/08/12 02:18:38;;;;;;;;;;;;;;;27.55;nan;100705.31;5070248;28;1692;-44
2022/08/12 02:21:09;;;;;;;;;;;;;;;27.49;nan;100706.75;5071964;28;937;-42
2022/08/12 02:23:37;;;;;;;;;;;;;;;27.42;nan;100697.59;5071440;28;1244;-43
2022/08/12 02:26:05;;;;;;;;;;;;;;;27.65;nan;100698.97;5071492;28;769;-44
2022/08/12 02:28:32;;;;;;;;;;;;;;;27.44;nan;100694.78;5073040;28;1225;-43
2022/08/12 02:31:04;;;;;;;;;;;;;;;27.50;nan;100692.38;5072540;28;1905;-44
2022/08/12 02:33:31;;;;;;;;;;;;;;;27.60;nan;100695.03;5072627;28;1429;-44
2022/08/12 02:35:59;;;;;;;;;;;;;;;27.52;nan;100686.88;5071885;28;945;-44
2022/08/12 02:38:27;;;;;;;;;;;;;;;27.34;nan;100678.72;5072699;28;1221;-44
2022/08/12 02:40:54;;;;;;;;;;;;;;;27.62;nan;100682.34;5072702;28;890;-47
2022/08/12 02:43:27;;;;;;;;;;;;;;;27.60;nan;100679.81;5072825;28;1212;-42
2022/08/12 02:45:56;;;;;;;;;;;;;;;27.65;nan;100672.19;5073041;28;816;-44
2022/08/12 02:48:29;;;;;;;;;;;;;;;27.60;nan;100669.09;5072588;28;1182;-42
2022/08/12 02:51:00;;;;;;;;;;;;;;;27.62;nan;100668.97;5072588;28;1902;-44
2022/08/12 02:53:27;;;;;;;;;;;;;;;27.56;nan;100675.75;5072660;28;1354;-42
2022/08/12 02:55:56;;;;;;;;;;;;;;;27.63;nan;100662.63;5072694;28;749;-43
2022/08/12 02:58:23;;;;;;;;;;;;;;;27.69;nan;100667.41;5071371;28;1327;-42
2022/08/12 03:01:00;;;;;;;;;;;;;;;27.69;nan;100667.41;5072444;28;694;-44
2022/08/12 03:03:29;;;;;;;;;;;;;;;27.73;nan;100670.59;5071852;28;1301;-42
2022/08/12 03:06:01;;;;;;;;;;;;;;;27.60;nan;100663.75;5072805;28;804;-42
2022/08/12 03:08:30;;;;;;;;;;;;;;;27.50;nan;100668.31;5072397;28;1292;-42
2022/08/12 03:11:02;;;;;;;;;;;;;;;27.44;nan;100668.03;5072516;28;1906;-41
2022/08/12 03:13:29;;;;;;;;;;;;;;;27.26;nan;100664.41;5072580;28;1260;-42
2022/08/12 03:15:57;;;;;;;;;;;;;;;27.24;nan;100661.84;5072547;28;740;-34
2022/08/12 03:18:31;;;;;;;;;;;;;;;27.30;nan;100669.31;5072805;28;1216;-33
2022/08/12 03:20:58;;;;;;;;;;;;;;;27.40;nan;100667.44;5072749;28;836;-33
2022/08/12 03:23:26;;;;;;;;;;;;;;;27.51;nan;100664.63;5072163;28;1217;-33
2022/08/12 03:25:55;;;;;;;;;;;;;;;27.39;nan;100663.09;5072485;28;811;-35
2022/08/12 03:31:08;;;;;;;;;;;;;;;27.25;nan;100652.84;5072158;28;1914;-33
2022/08/12 03:33:36;;;;;;;;;;;;;;;27.26;nan;100662.56;5071970;28;1487;-41
2022/08/12 03:36:05;;;;;;;;;;;;;;;27.26;nan;100654.56;5072354;28;635;-44
2022/08/12 03:38:36;;;;;;;;;;;;;;;27.29;nan;100653.41;5072098;28;1209;-44
2022/08/12 04:00:54;;;;;;;;;;;;;;;26.95;nan;100645.03;5072232;28;877;-44
2022/08/12 04:06:07;;;;;;;;;;;;;;;27.30;nan;100633.72;5071955;28;745;-43
2022/08/12 04:08:34;;;;;;;;;;;;;;;27.27;nan;100634.81;5072072;28;1282;-43
2022/08/12 04:13:47;;;;;;;;;;;;;;;27.15;nan;100627.97;5072157;28;1339;-34
2022/08/12 04:16:15;;;;;;;;;;;;;;;27.37;nan;100629.44;5075224;28;753;-34
2022/08/12 04:18:43;;;;;;;;;;;;;;;27.21;nan;100626.56;5075477;28;1197;-34
2022/08/12 04:21:09;;;;;;;;;;;;;;;27.24;nan;100627.09;5074786;28;777;-34
2022/08/12 04:23:37;;;;;;;;;;;;;;;27.25;nan;100625.28;5075449;28;1197;-35
2022/08/12 04:26:05;;;;;;;;;;;;;;;27.12;nan;100614.88;5075751;28;792;-33
2022/08/12 04:28:33;;;;;;;;;;;;;;;27.15;nan;100614.59;5075223;28;1240;-40
2022/08/12 04:31:00;;;;;;;;;;;;;;;27.05;nan;100611.94;5075173;28;1909;-43
2022/08/12 04:33:27;;;;;;;;;;;;;;;27.21;nan;100614.00;5075202;28;1276;-43
2022/08/12 04:35:54;;;;;;;;;;;;;;;27.30;nan;100609.66;5075327;28;1381;-44
2022/08/12 04:38:22;;;;;;;;;;;;;;;27.09;nan;100616.03;5075330;28;1254;-44
2022/08/12 04:40:48;;;;;;;;;;;;;;;27.04;nan;100612.94;5075447;28;1626;-43
2022/08/12 04:43:16;;;;;;;;;;;;;;;27.01;nan;100607.03;5075003;28;1288;-42
2022/08/12 04:46:02;;;;;;;;;;;;;;;27.01;nan;100610.56;5075286;28;2141;-42
2022/08/12 04:48:29;;;;;;;;;;;;;;;27.17;nan;100612.63;5074967;28;1614;-42
2022/08/12 04:50:56;;;;;;;;;;;;;;;27.10;nan;100619.53;5075010;28;1980;-42
2022/08/12 04:53:23;;;;;;;;;;;;;;;27.03;nan;100615.75;5075137;28;1291;-42
2022/08/12 04:55:51;;;;;;;;;;;;;;;27.13;nan;100609.41;5075126;28;921;-41
2022/08/12 04:58:17;;;;;;;;;;;;;;;26.96;nan;100612.78;5074873;28;1286;-42
2022/08/12 05:00:55;;;;;;;;;;;;;;;27.08;nan;100613.50;5074375;28;1623;-37
2022/08/12 05:03:24;;;;;;;;;;;;;;;27.07;nan;100607.31;5061710;28;1209;-37
2022/08/12 05:05:51;;;;;;;;;;;;;;;27.03;nan;100611.25;5070374;28;1033;-36
2022/08/12 05:08:18;;;;;;;;;;;;;;;26.99;nan;100609.03;5063463;28;1209;-43
2022/08/12 05:10:46;;;;;;;;;;;;;;;27.30;nan;100613.13;5074617;28;1221;-43
2022/08/12 05:13:15;;;;;;;;;;;;;;;27.31;nan;100612.16;5073105;28;1918;-43
2022/08/12 05:15:44;;;;;;;;;;;;;;;27.34;nan;100614.53;5074774;28;717;-38
2022/08/12 05:18:29;;;;;;;;;;;;;;;27.14;nan;100615.59;5057292;28;1259;-43
2022/08/12 05:20:59;;;;;;;;;;;;;;;27.24;nan;100616.41;5054737;28;1477;-43
2022/08/12 05:23:26;;;;;;;;;;;;;;;27.07;nan;100618.00;5054683;28;1300;-43
2022/08/12 05:25:55;;;;;;;;;;;;;;;27.12;nan;100614.88;5053891;28;1505;-43
2022/08/12 05:28:23;;;;;;;;;;;;;;;27.11;nan;100618.56;5054232;28;1200;-42
2022/08/12 05:30:50;;;;;;;;;;;;;;;27.34;nan;100614.53;5061897;28;919;-40
2022/08/12 05:33:17;;;;;;;;;;;;;;;27.21;nan;100619.34;5073380;28;1977;-40
2022/08/12 05:35:44;;;;;;;;;;;;;;;27.25;nan;100623.44;5073728;28;1785;-39
2022/08/12 05:40:58;;;;;;;;;;;;;;;27.23;nan;100620.06;5053998;28;641;-42
2022/08/12 05:43:25;;;;;;;;;;;;;;;27.37;nan;100618.75;5068897;28;1267;-41
2022/08/12 05:45:52;;;;;;;;;;;;;;;27.44;nan;100620.75;5072392;28;890;-41
2022/08/12 05:48:20;;;;;;;;;;;;;;;27.51;nan;100621.81;5073528;28;1352;-43
2022/08/12 05:50:47;;;;;;;;;;;;;;;27.48;nan;100627.47;5071230;28;1209;-44
2022/08/12 05:53:14;;;;;;;;;;;;;;;27.61;nan;100627.97;5073350;28;1971;-42
2022/08/12 05:55:40;;;;;;;;;;;;;;;27.48;nan;100632.81;5073521;28;1009;-42
2022/08/12 05:58:07;;;;;;;;;;;;;;;27.62;nan;100629.69;5073666;28;1272;-43
2022/08/12 06:00:35;;;;;;;;;;;;;;;27.53;nan;100633.25;5073884;28;890;-43
2022/08/12 06:03:02;;;;;;;;;;;;;;;27.65;nan;100625.88;5073572;28;1295;-41
2022/08/12 06:05:33;;;;;;;;;;;;;;;27.60;nan;100630.81;5073773;28;777;-41
2022/08/12 06:08:00;;;;;;;;;;;;;;;27.63;nan;100631.34;5073385;28;1268;-43
2022/08/12 06:10:29;;;;;;;;;;;;;;;27.71;nan;100632.44;5071621;28;764;-41
2022/08/12 06:13:02;;;;;;;;;;;;;;;27.65;nan;100636.56;5071543;28;1914;-45
2022/08/12 06:15:29;;;;;;;;;;;;;;;27.80;nan;100632.41;5071265;28;681;-40
2022/08/12 06:18:04;;;;;;;;;;;;;;;27.84;nan;100633.81;5071920;28;1218;-43
2022/08/12 06:20:39;;;;;;;;;;;;;;;27.89;nan;100641.38;5071871;28;664;-43
2022/08/12 06:23:09;;;;;;;;;;;;;;;27.85;nan;100634.63;5071967;28;1334;-42
2022/08/12 06:25:36;;;;;;;;;;;;;;;27.75;nan;100639.19;5067741;28;1110;-43
2022/08/12 06:28:02;;;;;;;;;;;;;;;27.81;nan;100635.94;5071453;28;1330;-39
2022/08/12 06:30:34;;;;;;;;;;;;;;;27.78;nan;100633.56;5072777;28;1165;-42
2022/08/12 06:33:05;;;;;;;;;;;;;;;27.90;nan;100637.72;5072746;28;1918;-43
2022/08/12 06:35:51;;;;;;;;;;;;;;;27.77;nan;100629.19;5072059;28;1140;-43
2022/08/12 06:38:26;;;;;;;;;;;;;;;27.82;nan;100634.91;5072132;28;1309;-42
2022/08/12 06:43:40;;;;;;;;;;;;;;;28.08;nan;100634.13;5072799;28;1239;-43
2022/08/12 06:46:27;;;;;;;;;;;;;;;28.11;nan;100641.84;5072326;28;1891;-42
2022/08/12 06:48:57;;;;;;;;;;;;;;;28.18;nan;100644.75;5072345;28;1229;-42
2022/08/12 06:51:26;;;;;;;;;;;;;;;28.17;nan;100635.06;5072615;28;1969;-43
2022/08/12 06:53:54;;;;;;;;;;;;;;;28.12;nan;100640.00;5072482;28;1193;-44
2022/08/12 06:56:21;;;;;;;;;;;;;;;28.27;nan;100637.66;5070712;28;825;-41
2022/08/12 06:59:01;;;;;;;;;;;;;;;28.25;nan;100635.13;5072773;28;1270;-41
2022/08/12 07:01:30;;;;;;;;;;;;;;;28.21;nan;100641.78;5072240;28;1190;-43
2022/08/12 07:03:58;;;;;;;;;;;;;;;28.22;nan;100638.09;5071766;28;1212;-43
2022/08/12 07:06:40;;;;;;;;;;;;;;;28.24;nan;100635.28;5070804;28;1106;-42
2022/08/12 07:09:06;;;;;;;;;;;;;;;28.28;nan;100637.50;5072170;28;1262;-43
2022/08/12 07:11:33;;;;;;;;;;;;;;;28.37;nan;100641.94;5072313;28;1975;-42
2022/08/12 07:14:03;;;;;;;;;;;;;;;28.44;nan;100637.69;5072413;28;1246;-42
2022/08/12 07:17:00;;;;;;;;;;;;;;;28.50;nan;100630.84;5071171;28;933;-44
2022/08/12 07:19:28;;;;;;;;;;;;;;;28.49;nan;100630.00;5072227;28;1161;-45
2022/08/12 07:22:12;;;;;;;;;;;;;;;28.49;nan;100638.03;5071839;28;1405;-44
2022/08/12 07:24:39;;;;;;;;;;;;;;;28.61;nan;100628.78;5072062;28;1014;-43
2022/08/12 07:27:05;;;;;;;;;;;;;;;28.36;nan;100631.41;5071620;28;1306;-40
2022/08/12 07:29:33;;;;;;;;;;;;;;;28.59;nan;100632.63;5070278;28;1241;-41
2022/08/12 07:32:23;;;;;;;;;;;;;;;28.68;nan;100629.88;5068557;28;1986;-40
2022/08/12 07:34:53;;;;;;;;;;;;;;;28.68;nan;100626.38;5071621;28;1361;-41
2022/08/12 07:37:20;;;;;;;;;;;;;;;28.58;nan;100629.09;5071339;28;1342;-41
2022/08/12 07:39:46;;;;;;;;;;;;;;;28.79;nan;100622.63;5071324;28;1007;-42
2022/08/12 07:42:15;;;;;;;;;;;;;;;28.84;nan;100625.66;5071819;28;1363;-43
2022/08/12 07:44:42;;;;;;;;;;;;;;;28.88;nan;100627.03;5071685;28;1073;-43
2022/08/12 07:47:09;;;;;;;;;;;;;;;28.93;nan;100635.44;5071061;28;1303;-44
2022/08/12 07:49:38;;;;;;;;;;;;;;;28.97;nan;100624.25;5073008;28;933;-41
2022/08/12 07:52:24;;;;;;;;;;;;;;;29.02;nan;100626.47;5068831;28;2110;-40
2022/08/12 07:54:51;;;;;;;;;;;;;;;29.02;nan;100638.03;5075646;28;1151;-44
2022/08/12 07:57:18;;;;;;;;;;;;;;;29.04;nan;100628.00;5075255;28;1281;-43
2022/08/12 07:59:45;;;;;;;;;;;;;;;29.09;nan;100625.66;5067953;28;1039;-42
2022/08/12 08:02:12;;;;;;;;;;;;;;;29.15;nan;100627.72;5068760;28;1284;-44
2022/08/12 08:04:59;;;;;;;;;;;;;;;29.27;nan;100623.81;5067618;28;1413;-38
2022/08/12 08:07:28;;;;;;;;;;;;;;;29.25;nan;100616.91;5075330;28;1450;-42
2022/08/12 08:09:57;;;;;;;;;;;;;;;29.22;nan;100627.94;5075982;28;1117;-42
2022/08/12 08:15:14;;;;;;;;;;;;;;;29.23;nan;100626.94;5074290;28;1197;-42
2022/08/12 08:18:01;;;;;;;;;;;;;;;29.32;nan;100623.34;5074120;28;1276;-44
2022/08/12 08:20:32;;;;;;;;;;;;;;;29.41;nan;100624.22;5074509;28;1152;-44
2022/08/12 08:23:04;;;;;;;;;;;;;;;29.38;nan;100617.34;5074518;28;1433;-38
2022/08/12 08:25:31;;;;;;;;;;;;;;;29.42;nan;100625.91;5073222;28;1439;-41
2022/08/12 08:28:03;;;;;;;;;;;;;;;29.47;nan;100618.22;5073686;28;1358;-42
2022/08/12 08:30:31;;;;;;;;;;;;;;;29.50;nan;100610.69;5074511;28;1155;-40
2022/08/12 08:32:58;;;;;;;;;;;;;;;29.52;nan;100619.41;5073891;28;1898;-39
2022/08/12 08:35:25;;;;;;;;;;;;;;;29.53;nan;100620.28;5074212;28;1706;-38
2022/08/12 08:38:05;;;;;;;;;;;;;;;29.61;nan;100610.41;5073894;28;1402;-42
2022/08/12 08:43:19;;;;;;;;;;;;;;;29.61;nan;100606.88;5072445;28;1288;-39
2022/08/12 08:45:47;;;;;;;;;;;;;;;30.05;nan;100604.91;5073132;28;1279;-42
2022/08/12 08:48:15;;;;;;;;;;;;;;;29.72;nan;100599.41;5073341;28;1298;-44
2022/08/12 08:50:43;;;;;;;;;;;;;;;29.74;nan;100602.75;5071585;28;1222;-42
2022/08/12 08:53:11;;;;;;;;;;;;;;;29.86;nan;100597.09;5073967;28;1902;-44
2022/08/12 08:55:39;;;;;;;;;;;;;;;29.92;nan;100589.25;5074820;28;1235;-43
2022/08/12 08:58:27;;;;;;;;;;;;;;;29.83;nan;100592.06;5071024;28;1503;-38
2022/08/12 09:00:55;;;;;;;;;;;;;;;30.11;nan;100588.13;5071612;28;1082;-42
2022/08/12 09:03:22;;;;;;;;;;;;;;;30.07;nan;100584.06;5073412;28;1244;-42
2022/08/12 09:06:08;;;;;;;;;;;;;;;30.72;nan;100588.53;5073427;28;1897;-40
2022/08/12 09:08:36;;;;;;;;;;;;;;;30.12;nan;100581.75;5106369;28;1303;-39
2022/08/12 09:13:26;;;;;;;;;;;;;;;30.04;nan;100587.09;5074281;28;1007;-42
2022/08/12 09:14:09;;;;;;;;;;;;;;;30.36;nan;100587.16;5074159;28;2014;-40
2022/08/12 09:16:43;;;;;;;;;;;;;;;30.01;nan;100582.03;5074289;28;1091;-37
2022/08/12 09:19:12;;;;;;;;;;;;;;;30.19;nan;100588.13;5074242;28;1224;-38
2022/08/12 09:21:59;;;;;;;;;;;;;;;30.23;nan;100586.78;5073503;28;2093;-39
2022/08/12 09:24:26;;;;;;;;;;;;;;;30.65;nan;100582.16;5074243;28;940;-37
2022/08/12 09:26:53;;;;;;;;;;;;;;;30.15;nan;100578.75;5074259;28;1378;-37
2022/08/12 09:29:20;;;;;;;;;;;;;;;30.36;nan;100581.78;5074150;28;1300;-43
2022/08/12 09:32:08;;;;;;;;;;;;;;;30.20;nan;100576.38;5081974;28;2253;-39
2022/08/12 09:34:55;;;;;;;;;;;;;;;30.67;nan;100569.38;5080131;28;1984;-35
2022/08/12 09:37:25;;;;;;;;;;;;;;;30.29;nan;100567.31;5087164;28;1276;-40
2022/08/12 09:39:53;;;;;;;;;;;;;;;30.19;nan;100569.31;5076402;28;1118;-39
2022/08/12 09:45:40;;;;;;;;;;;;;;;30.44;nan;100557.63;5071082;28;2195;-41
2022/08/12 09:48:28;;;;;;;;;;;;;;;30.56;nan;100555.44;5071969;28;1659;-39
2022/08/12 09:51:00;;;;;;;;;;;;;;;30.51;nan;100549.75;5070076;28;696;-38
2022/08/12 09:53:27;;;;;;;;;;;;;;;30.28;nan;100546.84;5070270;28;1987;-42
2022/08/12 09:56:02;;;;;;;;;;;;;;;30.73;nan;100555.25;5072457;28;1067;-44
2022/08/12 09:58:50;;;;;;;;;;;;;;;30.78;nan;100552.91;5073413;28;2012;-43
2022/08/12 10:01:24;;;;;;;;;;;;;;;30.46;nan;100552.09;5062285;28;1552;-43
2022/08/12 10:04:02;;;;;;;;;;;;;;;30.38;nan;100552.03;5052510;28;1351;-44
2022/08/12 10:06:30;;;;;;;;;;;;;;;31.39;nan;100544.22;5053027;28;909;-43
2022/08/12 10:09:03;;;;;;;;;;;;;;;30.63;nan;100551.91;5051053;28;1280;-44
2022/08/12 10:14:36;;;;;;;;;;;;;;;31.08;nan;100545.13;5051142;28;2045;-43
2022/08/12 10:17:04;;;;;;;;;;;;;;;30.53;nan;100545.03;5051512;28;1244;-44
2022/08/12 10:19:36;;;;;;;;;;;;;;;30.48;nan;100542.84;5052632;28;1254;-43
2022/08/12 10:22:04;;;;;;;;;;;;;;;30.44;nan;100541.50;5071324;28;1220;-44
2022/08/12 10:24:42;;;;;;;;;;;;;;;30.59;nan;100547.03;5069384;28;1314;-44
2022/08/12 10:30:14;;;;;;;;;;;;;;;30.81;nan;100536.44;5070405;28;1916;-43
2022/08/12 10:33:01;;;;;;;;;;;;;;;30.61;nan;100532.41;5070463;28;1964;-43
2022/08/12 10:35:31;;;;;;;;;;;;;;;30.65;nan;100528.38;5068803;28;1291;-42
2022/08/12 10:38:03;;;;;;;;;;;;;;;31.58;nan;100523.28;5071619;28;1284;-44
2022/08/12 10:43:41;;;;;;;;;;;;;;;30.69;nan;100516.28;5067331;28;1606;-43
2022/08/12 10:46:22;;;;;;;;;;;;;;;31.10;nan;100519.75;5070433;28;1568;-43
2022/08/12 10:48:50;;;;;;;;;;;;;;;30.78;nan;100515.28;5070812;28;1300;-46
2022/08/12 10:51:29;;;;;;;;;;;;;;;30.69;nan;100510.91;5072019;28;701;-45
2022/08/12 10:54:16;;;;;;;;;;;;;;;31.47;nan;100508.31;5069253;28;1914;-47
2022/08/12 10:56:47;;;;;;;;;;;;;;;32.54;nan;100507.47;5066360;28;1475;-46
2022/08/12 10:59:15;;;;;;;;;;;;;;;32.35;nan;100508.81;5053925;28;1408;-43
2022/08/12 11:01:42;;;;;;;;;;;;;;;32.34;nan;100512.53;5058281;28;885;-45
2022/08/12 11:04:29;;;;;;;;;;;;;;;32.40;nan;100512.66;5072589;28;2113;-39
2022/08/12 11:07:14;;;;;;;;;;;;;;;32.68;nan;100504.81;5070997;28;1252;-39
2022/08/12 11:10:01;;;;;;;;;;;;;;;32.69;nan;100502.97;5071365;28;2121;-37
2022/08/12 11:12:31;;;;;;;;;;;;;;;32.64;nan;100498.13;5070387;28;1910;-40
2022/08/12 11:15:20;;;;;;;;;;;;;;;32.76;nan;100493.97;5066746;28;2093;-38
2022/08/12 11:17:59;;;;;;;;;;;;;;;33.10;nan;100485.34;5072617;28;1229;-40
2022/08/12 11:20:28;;;;;;;;;;;;;;;33.04;nan;100493.31;5071228;28;825;-37
2022/08/12 11:22:58;;;;;;;;;;;;;;;32.69;nan;100501.09;5076352;28;1331;-38
2022/08/12 11:25:25;;;;;;;;;;;;;;;32.91;nan;100475.94;5072562;28;1047;-40
2022/08/12 11:28:13;;;;;;;;;;;;;;;33.03;nan;100470.91;5076080;28;1359;-39
2022/08/12 11:30:40;;;;;;;;;;;;;;;33.03;nan;100479.00;5076058;28;860;-38
2022/08/12 11:33:08;;;;;;;;;;;;;;;32.97;nan;100480.56;5071644;28;1981;-40
2022/08/12 11:35:40;;;;;;;;;;;;;;;33.30;nan;100482.91;5074740;28;1759;-40
2022/08/12 11:38:09;;;;;;;;;;;;;;;32.77;nan;100478.63;5069413;28;1295;-41
2022/08/12 11:40:36;;;;;;;;;;;;;;;33.15;nan;100473.97;5075356;28;935;-44
2022/08/12 11:43:03;;;;;;;;;;;;;;;33.13;nan;100468.78;5073965;28;1280;-42
2022/08/12 11:45:45;;;;;;;;;;;;;;;33.26;nan;100471.63;5099503;28;730;-39
2022/08/12 11:48:12;;;;;;;;;;;;;;;32.92;nan;100471.38;5075382;28;1181;-43
2022/08/12 11:50:44;;;;;;;;;;;;;;;33.01;nan;100462.16;5075449;28;941;-41
2022/08/12 11:53:10;;;;;;;;;;;;;;;32.97;nan;100466.25;5075568;28;1911;-42
2022/08/12 11:55:57;;;;;;;;;;;;;;;33.14;nan;100458.81;5081948;28;2160;-45
2022/08/12 11:58:23;;;;;;;;;;;;;;;33.27;nan;100461.69;5075272;28;1268;-41
2022/08/12 12:01:10;;;;;;;;;;;;;;;32.96;nan;100464.56;5081255;28;3081;-43
2022/08/12 12:03:57;;;;;;;;;;;;;;;33.02;nan;100463.81;5072640;28;1477;-41
2022/08/12 12:06:24;;;;;;;;;;;;;;;33.05;nan;100471.53;5072985;28;842;-41
2022/08/12 12:08:50;;;;;;;;;;;;;;;32.76;nan;100467.00;5075234;28;1263;-40
2022/08/12 12:11:20;;;;;;;;;;;;;;;32.79;nan;100460.38;5074845;28;1507;-44
2022/08/12 12:13:47;;;;;;;;;;;;;;;32.91;nan;100467.84;5074539;28;1983;-41
2022/08/12 12:16:33;;;;;;;;;;;;;;;32.86;nan;100453.25;5074594;28;1957;-40
2022/08/12 12:19:04;;;;;;;;;;;;;;;33.22;nan;100453.31;5074381;28;1288;-41
2022/08/12 12:21:31;;;;;;;;;;;;;;;33.09;nan;100451.28;5074038;28;992;-39
2022/08/12 12:24:13;;;;;;;;;;;;;;;32.91;nan;100454.34;5069394;28;1320;-42
2022/08/12 12:26:39;;;;;;;;;;;;;;;33.00;nan;100449.69;5074877;28;1018;-42
2022/08/12 12:29:06;;;;;;;;;;;;;;;32.89;nan;100450.16;5074658;28;1209;-43
2022/08/12 12:31:53;;;;;;;;;;;;;;;32.92;nan;100439.00;5074509;28;2189;-40
2022/08/12 12:34:36;;;;;;;;;;;;;;;33.11;nan;100437.59;5074262;28;1917;-41
2022/08/12 12:37:04;;;;;;;;;;;;;;;32.99;nan;100443.44;5074407;28;1368;-43
2022/08/12 12:39:30;;;;;;;;;;;;;;;33.14;nan;100439.91;5073938;28;1150;-42
2022/08/12 12:42:17;;;;;;;;;;;;;;;32.99;nan;100439.91;5069709;28;1732;-42
2022/08/12 12:45:04;;;;;;;;;;;;;;;33.13;nan;100432.88;5074991;28;1939;-39
2022/08/12 12:48:11;;;;;;;;;;;;;;;33.03;nan;100438.53;5074708;28;1284;-40
2022/08/12 12:50:39;;;;;;;;;;;;;;;33.01;nan;100444.09;5073191;28;1605;-41
2022/08/12 12:53:11;;;;;;;;;;;;;;;33.00;nan;100434.34;5073683;28;1922;-40
2022/08/12 12:55:55;;;;;;;;;;;;;;;32.86;nan;100427.06;5073794;28;971;-45
2022/08/12 12:58:21;;;;;;;;;;;;;;;32.94;nan;100424.31;5073811;28;1256;-40
2022/08/12 13:00:49;;;;;;;;;;;;;;;32.99;nan;100434.50;5074269;28;871;-44
2022/08/12 13:03:17;;;;;;;;;;;;;;;32.83;nan;100426.63;5074045;28;1248;-38
2022/08/12 13:05:44;;;;;;;;;;;;;;;32.83;nan;100416.66;5074115;28;765;-43
2022/08/12 13:08:20;;;;;;;;;;;;;;;32.91;nan;100413.88;5077165;28;1358;-41
2022/08/12 13:10:54;;;;;;;;;;;;;;;33.12;nan;100412.28;5073858;28;738;-41
2022/08/12 13:13:21;;;;;;;;;;;;;;;33.12;nan;100412.28;5072358;28;1991;-40
2022/08/12 13:16:09;;;;;;;;;;;;;;;33.32;nan;100427.69;5067978;28;2068;-40
2022/08/12 13:18:39;;;;;;;;;;;;;;;32.77;nan;100420.09;5073963;28;1323;-41
2022/08/12 13:21:08;;;;;;;;;;;;;;;32.95;nan;100422.44;5074288;28;1126;-42
2022/08/12 13:23:45;;;;;;;;;;;;;;;33.00;nan;100410.06;5073740;28;1316;-39
2022/08/12 13:26:16;;;;;;;;;;;;;;;32.90;nan;100417.59;5074036;28;920;-39
2022/08/12 13:28:44;;;;;;;;;;;;;;;32.98;nan;100409.38;5070401;28;1466;-43
2022/08/12 13:31:15;;;;;;;;;;;;;;;32.40;nan;100404.00;5073917;28;1116;-40
2022/08/12 13:33:41;;;;;;;;;;;;;;;32.96;nan;100406.06;5072848;28;1909;-42
2022/08/12 13:36:29;;;;;;;;;;;;;;;32.75;nan;100403.28;5072884;28;2091;-46
2022/08/12 13:38:56;;;;;;;;;;;;;;;33.11;nan;100397.97;5072228;28;1220;-43
2022/08/12 13:41:31;;;;;;;;;;;;;;;33.04;nan;100396.19;5073041;28;848;-41
2022/08/12 13:43:59;;;;;;;;;;;;;;;33.16;nan;100394.72;5071990;28;1485;-47
2022/08/12 13:46:26;;;;;;;;;;;;;;;33.05;nan;100392.44;5071644;28;1062;-43
2022/08/12 13:48:53;;;;;;;;;;;;;;;33.20;nan;100383.31;5070333;28;1184;-41
2022/08/12 13:51:19;;;;;;;;;;;;;;;33.12;nan;100396.09;5071109;28;735;-42
2022/08/12 13:53:50;;;;;;;;;;;;;;;33.10;nan;100384.66;5071774;28;1980;-45
2022/08/12 13:56:25;;;;;;;;;;;;;;;33.24;nan;100386.50;5072124;28;972;-41
2022/08/12 13:58:58;;;;;;;;;;;;;;;33.54;nan;100378.09;5074652;28;1276;-50
2022/08/12 14:01:25;;;;;;;;;;;;;;;33.38;nan;100388.28;5072171;28;731;-46
2022/08/12 14:03:52;;;;;;;;;;;;;;;33.43;nan;100375.06;5070840;28;1587;-43
2022/08/12 14:06:20;;;;;;;;;;;;;;;33.49;nan;100372.44;5071863;28;898;-41
2022/08/12 14:08:50;;;;;;;;;;;;;;;33.23;nan;100384.81;5071583;28;1358;-42
2022/08/12 14:11:17;;;;;;;;;;;;;;;33.46;nan;100369.28;5071719;28;972;-43
2022/08/12 14:13:44;;;;;;;;;;;;;;;33.10;nan;100372.03;5070052;28;2009;-45
2022/08/12 14:16:34;;;;;;;;;;;;;;;33.12;nan;100372.66;5074929;28;2043;-41
2022/08/12 14:19:12;;;;;;;;;;;;;;;33.38;nan;100364.00;5065917;28;1468;-43
2022/08/12 14:21:49;;;;;;;;;;;;;;;33.63;nan;100370.72;5072292;28;742;-47
2022/08/12 14:24:26;;;;;;;;;;;;;;;33.87;nan;100364.91;5067286;28;1230;-47
2022/08/12 14:26:56;;;;;;;;;;;;;;;32.80;nan;100370.38;5066259;28;1332;-45
2022/08/12 14:29:29;;;;;;;;;;;;;;;33.75;nan;100361.09;5070434;28;1088;-41
2022/08/12 14:32:16;;;;;;;;;;;;;;;33.52;nan;100357.72;5069664;28;1471;-42
2022/08/12 14:34:45;;;;;;;;;;;;;;;34.00;nan;100356.94;5070290;28;1910;-46
2022/08/12 14:37:11;;;;;;;;;;;;;;;33.75;nan;100366.47;5071243;28;1343;-44
2022/08/12 14:39:59;;;;;;;;;;;;;;;33.63;nan;100354.53;5063939;28;2214;-44
2022/08/12 14:42:26;;;;;;;;;;;;;;;34.06;nan;100353.44;5070912;28;1339;-43
2022/08/12 14:44:56;;;;;;;;;;;;;;;34.15;nan;100348.75;5071398;28;1115;-45
2022/08/12 14:47:26;;;;;;;;;;;;;;;34.22;nan;100356.91;5070488;28;1308;-43
2022/08/12 14:49:54;;;;;;;;;;;;;;;34.34;nan;100358.03;5071688;28;1045;-43
2022/08/12 14:52:42;;;;;;;;;;;;;;;34.15;nan;100356.03;5070078;28;2336;-47
2022/08/12 14:55:32;;;;;;;;;;;;;;;33.93;nan;100361.44;5066625;28;1999;-44
2022/08/12 14:58:19;;;;;;;;;;;;;;;34.14;nan;100359.78;5071090;28;1283;-46
2022/08/12 15:03:32;;;;;;;;;;;;;;;34.42;nan;100360.56;5070748;28;1610;-41
2022/08/12 15:06:19;;;;;;;;;;;;;;;34.34;nan;100356.16;5068683;28;933;-40
2022/08/12 15:09:09;;;;;;;;;;;;;;;34.13;nan;100358.09;5071599;28;1196;-41
2022/08/12 15:11:38;;;;;;;;;;;;;;;34.34;nan;100358.03;5071722;28;817;-40
2022/08/12 15:14:24;;;;;;;;;;;;;;;34.15;nan;100354.16;5071057;28;1909;-40
2022/08/12 15:16:51;;;;;;;;;;;;;;;34.12;nan;100342.91;5069995;28;816;-41
2022/08/12 15:19:19;;;;;;;;;;;;;;;34.28;nan;100337.19;5064093;28;1436;-40
2022/08/12 15:22:06;;;;;;;;;;;;;;;34.28;nan;100338.03;5068228;28;2286;-46
2022/08/12 15:24:52;;;;;;;;;;;;;;;34.15;nan;100347.91;5068485;28;2212;-41
2022/08/12 15:27:19;;;;;;;;;;;;;;;34.47;nan;100336.50;5069186;28;1351;-43
2022/08/12 15:29:47;;;;;;;;;;;;;;;34.19;nan;100333.81;5068465;28;1254;-44
2022/08/12 15:32:17;;;;;;;;;;;;;;;34.31;nan;100332.22;5063321;28;1422;-40
2022/08/12 15:34:45;;;;;;;;;;;;;;;34.24;nan;100342.16;5063435;28;1989;-43